Aviation Digital Data Service (ADDS)

Output produced by METARs form (0700 UTC 24 March 2019)
found at http://www.aviationweather.gov/metar/data/
 
VVDN 240630Z VRB02KT 4200 -RA BR FEW007 SCT012 BKN060 25/24 Q1013 NOSIG
TAF VVDN 240500Z 2406/2506 11008KT 8000 SCT013 BKN050 
     TEMPO 2406/2412 4000 RA 
     TEMPO 2418/2424 4000 RA
       
VVNB 240630Z 07008KT 040V120 9999 SCT019 BKN030 19/12 Q1016 NOSIG
TAF VVNB 240500Z 2406/2506 05008KT 9000 SCT020 BKN035 
     TEMPO 2419/2501 3500 -RA BR SCT008 BKN025
       
VVTS 240630Z 17010KT 120V260 9999 SCT015 SCT017CB 36/23 Q1007 NOSIG RMK CB/NE/W/NW
TAF VVTS 240500Z 2406/2512 11009KT 9999 SCT017 
     TEMPO 2406/2409 5000 TSRA BKN015 FEW017CB BKN040